Desert Springs, Nevada Weather observations

Data are for 10 minute period ending at time listed.
 Day   Time    Ave.   Ave.  Ave.  Vector   Max.   Total    Solar   
  of    of     Air    Rel.  Wind   Wind    Wind  Precip.   Rad.    
Year   Day     Temp.  Hum.  Speed  Dir.    Gust                    
2016   (PST)    F      %     mph   deg.    mph     in.     W/m2    
------------------------------------------------------------------- 
 340    1:00   39.0    56   21.0   299     31.0    7.26       0  
 340    2:00   38.0    55   12.0   300     28.0    7.26       0  
 340    3:00   36.0    53    1.0   321     16.0    7.26       0  
 340    4:00   35.0    53    0.0   222     10.0    7.26       0  
 340    5:00   34.0    60    3.0    54      7.0    7.26       0  
 340    6:00   33.0    63    1.0   115      6.0    7.26       0  
 340    7:00   32.0    69    1.0   332      5.0    7.26       0  
 340    8:00   32.0    72    4.0   357      5.0    7.26      18  
 340    9:00   34.0    74    5.0     7      7.0    7.26     160  
 340   10:00   37.0    69    2.0    26      7.0    7.26     282  
 340   11:00   40.0    59    2.0   259      6.0    7.26     346  
 340   12:00   41.0    56    4.0   127      7.0    7.26     492  
 340   13:00   41.0    53    5.0   131      8.0    7.26     461  
 340   14:00   40.0    56    4.0    33      8.0    7.26     277  
 340   15:00   46.0    22   14.0   287     19.0    7.26     331  
 340   16:00   46.0    16   19.0   290     25.0    7.26     206  
 340   17:00   40.0    17   10.0   293     24.0    7.26      87  
 340   18:00   37.0    23    8.0   270     16.0    7.26       0  
 340   19:00   36.0    23   13.0   256     21.0    7.26       0  
 340   20:00   34.0    24    2.0    60     16.0    7.26       0  
 340   21:00   35.0    25    4.0   295      7.0    7.26       0  
 340   22:00   33.0    26    2.0     8      6.0    7.26       0  
 340   23:00   33.0    29    4.0   299      8.0    7.26       0  
 341    0:00   30.0    34    7.0   269      9.0    7.26       0  

Return to Desert Springs, Nevada graphs page.


Western Regional Climate Center,wrcc@dri.edu